Time;durP1;ratioP1;P1;durP2;ratioP2;P2;SDS_P1;SDS_P2;PMS_P1;PMS_P2;Temp;Humidity;BMP_temperature;BMP_pressure;BME280_temperature;BME280_humidity;BME280_pressure;Samples;Min_cycle;Max_cycle;Signal;HPM_P1;HPM_P2
2023/08/10 00:02:11;;;;;;;;;3.00;3.00;;;;;;;;4846469;29;45692;-63
2023/08/10 00:04:36;;;;;;;;;3.33;3.00;;;;;;;;4846422;29;45567;-63
2023/08/10 00:07:01;;;;;;;;;4.50;3.00;;;;;;;;4846328;29;45392;-63
2023/08/10 00:09:27;;;;;;;;;21.67;20.33;;;;;;;;4846173;29;45458;-63
2023/08/10 00:11:52;;;;;;;;;7.33;7.00;;;;;;;;4846193;29;45527;-63
2023/08/10 00:14:17;;;;;;;;;7.00;5.00;;;;;;;;4846491;29;45455;-63
2023/08/10 00:16:43;;;;;;;;;7.00;4.00;;;;;;;;4846088;29;45522;-63
2023/08/10 00:19:08;;;;;;;;;3.00;3.00;;;;;;;;4846385;29;45328;-63
2023/08/10 00:21:34;;;;;;;;;2.00;2.00;;;;;;;;4846081;29;45480;-63
2023/08/10 00:23:59;;;;;;;;;6.33;2.00;;;;;;;;4846301;29;45419;-62
2023/08/10 00:26:25;;;;;;;;;4.67;2.67;;;;;;;;4845531;29;47130;-63
2023/08/10 00:28:50;;;;;;;;;4.00;4.00;;;;;;;;4845869;29;45309;-63
2023/08/10 00:31:16;;;;;;;;;3.00;3.00;;;;;;;;4846159;29;45292;-62
2023/08/10 00:33:41;;;;;;;;;4.75;2.50;;;;;;;;4846218;29;45357;-62
2023/08/10 00:36:06;;;;;;;;;3.00;3.00;;;;;;;;4845882;29;46238;-63
2023/08/10 00:38:32;;;;;;;;;3.00;3.00;;;;;;;;4845924;29;45396;-63
2023/08/10 00:40:57;;;;;;;;;2.00;2.00;;;;;;;;4845862;29;45361;-63
2023/08/10 00:43:24;;;;;;;;;4.00;2.00;;;;;;;;4845533;29;45283;-63
2023/08/10 00:45:50;;;;;;;;;1.75;1.75;;;;;;;;4845799;29;47537;-63
2023/08/10 00:48:16;;;;;;;;;2.00;2.00;;;;;;;;4845700;29;45475;-63
2023/08/10 00:50:41;;;;;;;;;1.75;1.75;;;;;;;;4845740;29;45371;-63
2023/08/10 00:53:06;;;;;;;;;3.00;3.00;;;;;;;;4845428;29;45476;-63
2023/08/10 00:55:32;;;;;;;;;4.00;2.00;;;;;;;;4845741;29;45463;-63
2023/08/10 00:57:57;;;;;;;;;2.25;2.00;;;;;;;;4845837;29;45422;-63
2023/08/10 01:00:22;;;;;;;;;2.25;2.00;;;;;;;;4845880;29;45870;-63
2023/08/10 01:02:47;;;;;;;;;2.75;2.25;;;;;;;;4845758;29;45390;-63
2023/08/10 01:05:13;;;;;;;;;1.50;1.50;;;;;;;;4845204;29;46648;-63
2023/08/10 01:07:41;;;;;;;;;4.00;2.00;;;;;;;;4845501;29;45401;-63
2023/08/10 01:10:13;;;;;;;;;1.75;1.00;;;;;;;;4845872;29;45347;-63
2023/08/10 01:12:45;;;;;;;;;2.00;2.00;;;;;;;;4845500;29;45320;-63
2023/08/10 01:15:45;;;;;;;;;3.00;2.00;;;;;;;;4844710;29;46363;-63
2023/08/10 01:18:14;;;;;;;;;2.50;2.50;;;;;;;;4806507;29;45417;-63
2023/08/10 01:20:40;;;;;;;;;2.00;2.00;;;;;;;;4806606;29;45436;-63
2023/08/10 01:23:24;;;;;;;;;3.00;1.75;;;;;;;;4806651;29;45456;-63
2023/08/10 01:25:50;;;;;;;;;6.50;3.00;;;;;;;;4805690;29;47557;-63
2023/08/10 01:28:15;;;;;;;;;1.50;1.50;;;;;;;;4806064;29;45503;-63
2023/08/10 01:30:41;;;;;;;;;1.50;1.00;;;;;;;;4806521;29;45438;-63
2023/08/10 01:33:08;;;;;;;;;3.25;2.00;;;;;;;;4806565;29;45654;-63
2023/08/10 01:35:33;;;;;;;;;1.50;1.50;;;;;;;;4805950;29;46440;-63
2023/08/10 01:37:58;;;;;;;;;2.75;1.25;;;;;;;;4805399;29;45391;-63
2023/08/10 01:40:24;;;;;;;;;2.00;2.00;;;;;;;;4806157;29;45426;-63
2023/08/10 01:42:49;;;;;;;;;2.00;2.00;;;;;;;;4806447;29;45406;-63
2023/08/10 01:45:14;;;;;;;;;2.00;2.00;;;;;;;;4805574;29;45584;-63
2023/08/10 01:47:39;;;;;;;;;2.25;1.00;;;;;;;;4806299;29;45333;-63
2023/08/10 01:50:07;;;;;;;;;1.00;1.00;;;;;;;;4806098;29;45465;-63
2023/08/10 01:52:34;;;;;;;;;2.00;2.00;;;;;;;;4831568;29;45442;-63
2023/08/10 01:55:00;;;;;;;;;3.00;1.25;;;;;;;;4844964;29;46199;-63
2023/08/10 01:57:28;;;;;;;;;2.00;2.00;;;;;;;;4844444;29;45333;-63
2023/08/10 01:59:53;;;;;;;;;1.00;1.00;;;;;;;;4844895;29;45401;-63
2023/08/10 02:02:19;;;;;;;;;1.00;1.00;;;;;;;;4845076;29;45408;-63
2023/08/10 02:04:44;;;;;;;;;2.75;2.00;;;;;;;;4844596;29;45599;-63
2023/08/10 02:07:09;;;;;;;;;2.50;1.00;;;;;;;;4844256;29;45517;-64
2023/08/10 02:09:34;;;;;;;;;2.00;2.00;;;;;;;;4844845;29;45440;-63
2023/08/10 02:11:59;;;;;;;;;5.00;3.25;;;;;;;;4845159;29;45222;-63
2023/08/10 02:14:25;;;;;;;;;1.75;1.00;;;;;;;;4844306;29;46618;-63
2023/08/10 02:16:50;;;;;;;;;1.75;1.50;;;;;;;;4843793;29;45341;-63
2023/08/10 02:19:16;;;;;;;;;2.50;1.00;;;;;;;;4844942;29;45312;-63
2023/08/10 02:21:41;;;;;;;;;3.00;3.00;;;;;;;;4844890;29;45259;-63
2023/08/10 02:24:06;;;;;;;;;3.00;1.00;;;;;;;;4844635;29;45467;-63
2023/08/10 02:26:31;;;;;;;;;2.75;1.75;;;;;;;;4844389;29;45350;-63
2023/08/10 02:28:57;;;;;;;;;2.25;2.00;;;;;;;;4842631;29;45381;-63
2023/08/10 02:31:23;;;;;;;;;2.00;0.50;;;;;;;;4844721;29;45210;-63
2023/08/10 02:33:48;;;;;;;;;3.25;2.00;;;;;;;;4844410;29;46850;-63
2023/08/10 02:36:13;;;;;;;;;1.25;1.00;;;;;;;;4844657;29;45946;-65
2023/08/10 02:38:38;;;;;;;;;2.00;2.00;;;;;;;;4844041;29;45303;-66
2023/08/10 02:41:04;;;;;;;;;1.75;1.75;;;;;;;;4844560;29;45424;-67
2023/08/10 02:43:29;;;;;;;;;3.00;1.50;;;;;;;;4844228;29;47338;-67
2023/08/10 02:45:55;;;;;;;;;9.67;7.33;;;;;;;;4844219;29;45696;-68
2023/08/10 02:48:20;;;;;;;;;1.50;1.50;;;;;;;;4844490;29;45435;-68
2023/08/10 02:50:46;;;;;;;;;2.75;2.75;;;;;;;;4847687;29;45504;-68
2023/08/10 02:53:11;;;;;;;;;1.25;1.25;;;;;;;;4847496;29;46229;-68
2023/08/10 02:55:36;;;;;;;;;3.50;2.00;;;;;;;;4847575;29;45431;-68
2023/08/10 02:58:01;;;;;;;;;2.75;2.00;;;;;;;;4847703;29;45352;-68
2023/08/10 03:00:27;;;;;;;;;1.00;1.00;;;;;;;;4847280;29;45370;-68
2023/08/10 03:02:52;;;;;;;;;2.00;2.00;;;;;;;;4847189;29;45526;-67
2023/08/10 03:05:20;;;;;;;;;3.00;1.75;;;;;;;;4847179;29;45647;-66
2023/08/10 03:07:46;;;;;;;;;4.00;2.75;;;;;;;;4847488;29;45494;-67
2023/08/10 03:10:11;;;;;;;;;2.00;2.00;;;;;;;;4847164;29;45384;-66
2023/08/10 03:12:36;;;;;;;;;4.00;2.00;;;;;;;;4847177;29;45611;-65
2023/08/10 03:15:04;;;;;;;;;0.00;0.00;;;;;;;;4847000;29;45353;-67
2023/08/10 03:17:29;;;;;;;;;1.75;1.00;;;;;;;;4847173;29;45169;-67
2023/08/10 03:19:54;;;;;;;;;1.50;1.50;;;;;;;;4847110;29;45172;-67
2023/08/10 03:22:20;;;;;;;;;2.50;2.00;;;;;;;;4847081;29;46307;-67
2023/08/10 03:24:45;;;;;;;;;3.75;3.00;;;;;;;;4846963;29;45382;-67
2023/08/10 03:27:10;;;;;;;;;3.25;3.25;;;;;;;;4847130;29;45320;-67
2023/08/10 03:29:36;;;;;;;;;2.00;2.00;;;;;;;;4847130;29;45317;-67
2023/08/10 03:32:01;;;;;;;;;1.50;1.50;;;;;;;;4846595;29;46205;-67
2023/08/10 03:34:26;;;;;;;;;1.25;1.25;;;;;;;;4846862;29;45388;-67
2023/08/10 03:36:53;;;;;;;;;3.25;3.00;;;;;;;;4847267;29;45315;-67
2023/08/10 03:39:18;;;;;;;;;19.00;17.00;;;;;;;;4847021;29;45322;-67
2023/08/10 03:41:43;;;;;;;;;10.67;9.33;;;;;;;;4846220;29;45399;-67
2023/08/10 03:44:08;;;;;;;;;2.00;1.00;;;;;;;;4846829;29;45711;-67
2023/08/10 03:46:33;;;;;;;;;3.75;3.75;;;;;;;;4846855;29;45404;-67
2023/08/10 03:48:59;;;;;;;;;3.50;3.00;;;;;;;;4847193;29;45337;-67
2023/08/10 03:51:24;;;;;;;;;3.50;2.00;;;;;;;;4846183;29;46905;-67
2023/08/10 03:53:50;;;;;;;;;2.75;2.75;;;;;;;;4846563;29;45428;-67
2023/08/10 03:56:16;;;;;;;;;2.25;2.25;;;;;;;;4846759;29;45425;-67
2023/08/10 03:58:41;;;;;;;;;4.50;2.00;;;;;;;;4846587;29;45467;-68
2023/08/10 04:01:07;;;;;;;;;3.00;3.00;;;;;;;;4846023;29;46589;-67
2023/08/10 04:03:32;;;;;;;;;2.00;2.00;;;;;;;;4846071;29;45786;-67
2023/08/10 04:05:58;;;;;;;;;4.00;3.00;;;;;;;;4846565;29;45471;-67
2023/08/10 04:08:24;;;;;;;;;2.25;1.75;;;;;;;;4846341;29;45400;-67
2023/08/10 04:10:49;;;;;;;;;6.00;4.00;;;;;;;;4846350;29;46403;-67
2023/08/10 04:13:14;;;;;;;;;13.67;10.67;;;;;;;;4846114;29;45256;-67
2023/08/10 04:15:39;;;;;;;;;5.00;4.00;;;;;;;;4846168;29;45548;-67
2023/08/10 04:18:05;;;;;;;;;2.00;2.00;;;;;;;;4846794;29;45333;-67
2023/08/10 04:20:30;;;;;;;;;3.00;2.00;;;;;;;;4846135;29;46184;-67
2023/08/10 04:22:57;;;;;;;;;3.75;2.00;;;;;;;;4845753;29;45572;-67
2023/08/10 04:25:22;;;;;;;;;4.00;3.00;;;;;;;;4846484;29;45511;-67
2023/08/10 04:27:47;;;;;;;;;4.50;2.00;;;;;;;;4846359;29;45420;-67
2023/08/10 04:30:13;;;;;;;;;3.25;3.25;;;;;;;;4846108;29;46616;-67
2023/08/10 04:32:38;;;;;;;;;1.50;1.25;;;;;;;;4845926;29;45402;-67
2023/08/10 04:35:03;;;;;;;;;3.25;2.00;;;;;;;;4845691;29;45392;-67
2023/08/10 04:37:29;;;;;;;;;3.50;3.00;;;;;;;;4846294;29;45399;-67
2023/08/10 04:39:54;;;;;;;;;3.00;3.00;;;;;;;;4846067;29;45407;-63
2023/08/10 04:42:19;;;;;;;;;2.75;2.00;;;;;;;;4846028;29;45411;-62
2023/08/10 04:44:44;;;;;;;;;0.00;0.00;;;;;;;;4845507;29;45564;-63
2023/08/10 04:47:09;;;;;;;;;3.25;3.00;;;;;;;;4846238;29;45403;-63
2023/08/10 04:49:35;;;;;;;;;2.00;2.00;;;;;;;;4845938;29;45650;-62
2023/08/10 04:52:00;;;;;;;;;2.50;2.50;;;;;;;;4845815;29;45343;-62
2023/08/10 04:54:25;;;;;;;;;4.00;3.00;;;;;;;;4845504;29;45440;-63
2023/08/10 04:56:50;;;;;;;;;5.33;3.67;;;;;;;;4846004;29;45464;-63
2023/08/10 04:59:16;;;;;;;;;3.50;3.50;;;;;;;;4845475;29;46722;-63
2023/08/10 05:01:41;;;;;;;;;2.25;2.25;;;;;;;;4845830;29;45224;-63
2023/08/10 05:04:06;;;;;;;;;3.75;3.75;;;;;;;;4845569;29;45430;-63
2023/08/10 05:06:34;;;;;;;;;4.00;3.75;;;;;;;;4845325;29;45580;-64
2023/08/10 05:08:59;;;;;;;;;4.00;3.67;;;;;;;;4845232;29;46462;-64
2023/08/10 05:11:24;;;;;;;;;3.00;3.00;;;;;;;;4845320;29;45298;-64
2023/08/10 05:13:49;;;;;;;;;4.75;2.25;;;;;;;;4844945;29;45424;-64
2023/08/10 05:16:17;;;;;;;;;5.00;3.25;;;;;;;;4845214;29;45475;-64
2023/08/10 05:18:43;;;;;;;;;4.33;3.00;;;;;;;;4845343;29;45716;-64
2023/08/10 05:21:08;;;;;;;;;6.33;4.33;;;;;;;;4845449;29;45312;-64
2023/08/10 05:23:33;;;;;;;;;3.67;3.00;;;;;;;;4845525;29;45415;-64
2023/08/10 05:25:58;;;;;;;;;3.25;3.00;;;;;;;;4845477;29;45393;-64
2023/08/10 05:28:23;;;;;;;;;4.75;3.00;;;;;;;;4845103;29;45378;-64
2023/08/10 05:30:49;;;;;;;;;5.67;4.00;;;;;;;;4845145;29;45344;-64
2023/08/10 05:33:14;;;;;;;;;2.50;2.50;;;;;;;;4845436;29;45397;-64
2023/08/10 05:35:40;;;;;;;;;4.00;4.00;;;;;;;;4845500;29;45328;-64
2023/08/10 05:38:06;;;;;;;;;3.00;3.00;;;;;;;;4844744;29;46387;-64
2023/08/10 05:40:31;;;;;;;;;7.00;5.00;;;;;;;;4844934;29;45263;-64
2023/08/10 05:42:56;;;;;;;;;4.25;3.75;;;;;;;;4845158;29;45359;-64
2023/08/10 05:45:22;;;;;;;;;3.00;3.00;;;;;;;;4845146;29;45538;-63
2023/08/10 05:47:49;;;;;;;;;5.25;2.25;;;;;;;;4844691;29;46590;-64
2023/08/10 05:50:14;;;;;;;;;4.00;4.00;;;;;;;;4845060;29;45381;-64
2023/08/10 05:52:40;;;;;;;;;4.25;3.75;;;;;;;;4844819;29;45301;-63
2023/08/10 05:55:05;;;;;;;;;5.00;3.33;;;;;;;;4845368;29;45439;-64
2023/08/10 05:57:31;;;;;;;;;16.00;12.67;;;;;;;;4844309;29;46617;-63
2023/08/10 05:59:56;;;;;;;;;2.50;2.50;;;;;;;;4844804;29;45323;-64
2023/08/10 06:02:22;;;;;;;;;2.00;2.00;;;;;;;;4844915;29;45468;-64
2023/08/10 06:04:48;;;;;;;;;6.00;5.00;;;;;;;;4844956;29;45414;-62
2023/08/10 06:07:14;;;;;;;;;2.50;2.50;;;;;;;;4844571;29;47361;-62
2023/08/10 06:09:39;;;;;;;;;5.50;3.00;;;;;;;;4844294;29;45349;-62
2023/08/10 06:12:06;;;;;;;;;7.50;4.00;;;;;;;;4844852;29;45327;-62
2023/08/10 06:14:31;;;;;;;;;6.00;3.75;;;;;;;;4844643;29;45319;-62
2023/08/10 06:16:57;;;;;;;;;5.25;2.00;;;;;;;;4844421;29;45785;-61
2023/08/10 06:19:22;;;;;;;;;4.75;3.75;;;;;;;;4844241;29;45309;-61
2023/08/10 06:21:48;;;;;;;;;4.00;4.00;;;;;;;;4844632;29;45293;-62
2023/08/10 06:24:13;;;;;;;;;2.75;1.75;;;;;;;;4844409;29;45292;-62
2023/08/10 06:26:38;;;;;;;;;3.00;2.50;;;;;;;;4844427;29;46736;-62
2023/08/10 06:29:04;;;;;;;;;4.75;3.00;;;;;;;;4843854;29;45558;-62
2023/08/10 06:31:29;;;;;;;;;3.33;3.33;;;;;;;;4844577;29;45305;-62
2023/08/10 06:33:54;;;;;;;;;3.00;2.25;;;;;;;;4844641;29;45536;-62
2023/08/10 06:36:20;;;;;;;;;3.25;2.00;;;;;;;;4844257;29;46260;-62
2023/08/10 06:38:45;;;;;;;;;3.00;3.00;;;;;;;;4844207;29;45382;-62
2023/08/10 06:41:10;;;;;;;;;3.00;2.00;;;;;;;;4843959;29;45156;-62
2023/08/10 06:43:35;;;;;;;;;3.00;3.00;;;;;;;;4844605;29;45369;-62
2023/08/10 06:46:01;;;;;;;;;4.50;3.00;;;;;;;;4844216;29;45459;-62
2023/08/10 06:48:26;;;;;;;;;10.25;4.50;;;;;;;;4844234;29;45434;-62
2023/08/10 06:50:51;;;;;;;;;3.25;2.25;;;;;;;;4843915;29;45356;-62
2023/08/10 06:53:16;;;;;;;;;2.50;2.00;;;;;;;;4844457;29;45401;-62
2023/08/10 06:55:42;;;;;;;;;5.25;3.50;;;;;;;;4844349;29;46468;-62
2023/08/10 06:58:08;;;;;;;;;2.00;2.00;;;;;;;;4827684;29;45447;-62
2023/08/10 07:00:33;;;;;;;;;3.00;3.00;;;;;;;;4843599;29;45341;-62
2023/08/10 07:02:59;;;;;;;;;4.00;2.50;;;;;;;;4844176;29;45387;-62
2023/08/10 07:05:28;;;;;;;;;3.25;3.25;;;;;;;;4843800;29;47137;-62
2023/08/10 07:07:54;;;;;;;;;4.75;3.00;;;;;;;;4844035;29;45245;-63
2023/08/10 07:10:19;;;;;;;;;4.75;4.00;;;;;;;;4843851;29;45325;-63
2023/08/10 07:12:45;;;;;;;;;2.00;2.00;;;;;;;;4843783;29;45361;-63
2023/08/10 07:15:10;;;;;;;;;4.00;2.50;;;;;;;;4843713;29;47506;-63
2023/08/10 07:17:36;;;;;;;;;2.00;2.00;;;;;;;;4843660;29;45462;-63
2023/08/10 07:20:04;;;;;;;;;3.00;3.00;;;;;;;;4827492;29;45349;-63
2023/08/10 07:22:29;;;;;;;;;2.75;2.50;;;;;;;;4843515;29;45723;-63
2023/08/10 07:24:54;;;;;;;;;2.00;2.00;;;;;;;;4843510;29;46313;-63
2023/08/10 07:27:20;;;;;;;;;2.50;1.75;;;;;;;;4843785;29;45428;-64
2023/08/10 07:29:45;;;;;;;;;3.25;2.25;;;;;;;;4843644;29;45494;-65
2023/08/10 07:32:11;;;;;;;;;3.75;2.00;;;;;;;;4843449;29;45476;-61
2023/08/10 07:34:36;;;;;;;;;2.00;2.00;;;;;;;;4843416;29;46509;-61
2023/08/10 07:37:02;;;;;;;;;4.00;2.00;;;;;;;;4846234;29;45257;-60
2023/08/10 07:39:27;;;;;;;;;1.25;1.25;;;;;;;;4846764;29;45941;-60
2023/08/10 07:41:52;;;;;;;;;2.00;2.00;;;;;;;;4830204;29;45267;-60
2023/08/10 07:44:18;;;;;;;;;2.00;2.00;;;;;;;;4846314;29;45697;-60
2023/08/10 07:46:46;;;;;;;;;2.00;2.00;;;;;;;;4846570;29;45431;-60
2023/08/10 07:49:12;;;;;;;;;2.25;2.25;;;;;;;;4846691;29;45392;-60
2023/08/10 07:51:37;;;;;;;;;4.25;1.50;;;;;;;;4846910;29;45334;-60
2023/08/10 07:54:02;;;;;;;;;5.00;3.00;;;;;;;;4846059;29;46221;-60
2023/08/10 07:56:27;;;;;;;;;2.75;2.75;;;;;;;;4846640;29;45300;-60
2023/08/10 07:58:52;;;;;;;;;3.00;2.00;;;;;;;;4846758;29;45390;-63
2023/08/10 08:01:18;;;;;;;;;2.75;2.75;;;;;;;;4846781;29;45317;-63
2023/08/10 08:03:43;;;;;;;;;3.75;2.00;;;;;;;;4845704;29;46286;-63
2023/08/10 08:06:08;;;;;;;;;1.00;1.00;;;;;;;;4846334;29;45376;-63
2023/08/10 08:08:33;;;;;;;;;2.25;1.75;;;;;;;;4846264;29;45318;-63
2023/08/10 08:10:59;;;;;;;;;3.50;3.00;;;;;;;;4846475;29;45387;-63
2023/08/10 08:13:24;;;;;;;;;1.50;1.50;;;;;;;;4846011;29;46509;-63
2023/08/10 08:15:50;;;;;;;;;1.50;1.50;;;;;;;;4845900;29;45446;-63
2023/08/10 08:18:37;;;;;;;;;2.25;2.25;;;;;;;;4846503;29;45338;-63
2023/08/10 08:21:03;;;;;;;;;2.00;2.00;;;;;;;;4846367;29;45650;-63
2023/08/10 08:23:28;;;;;;;;;3.75;2.50;;;;;;;;4843336;29;46256;-65
2023/08/10 08:25:53;;;;;;;;;3.00;1.50;;;;;;;;4845124;29;45337;-63
2023/08/10 08:28:18;;;;;;;;;1.00;1.00;;;;;;;;4846100;29;45697;-64
2023/08/10 08:30:43;;;;;;;;;1.75;1.25;;;;;;;;4845992;29;45553;-65
2023/08/10 08:33:09;;;;;;;;;2.00;2.00;;;;;;;;4845578;29;45351;-65
2023/08/10 08:35:34;;;;;;;;;2.00;2.00;;;;;;;;4845290;29;45417;-65
2023/08/10 08:38:00;;;;;;;;;2.00;2.00;;;;;;;;4845860;29;45433;-63
2023/08/10 08:40:25;;;;;;;;;1.50;1.50;;;;;;;;4845672;29;45305;-62
2023/08/10 08:42:51;;;;;;;;;2.00;2.00;;;;;;;;4845514;29;47044;-64
2023/08/10 08:45:17;;;;;;;;;2.00;2.00;;;;;;;;4845215;29;45575;-62
2023/08/10 08:47:43;;;;;;;;;3.00;3.00;;;;;;;;4845499;29;45482;-61
2023/08/10 08:50:08;;;;;;;;;2.00;1.75;;;;;;;;4845778;29;45340;-61
2023/08/10 08:52:33;;;;;;;;;1.00;1.00;;;;;;;;4844275;29;46750;-63
2023/08/10 08:55:00;;;;;;;;;2.75;2.50;;;;;;;;4845003;29;45361;-61
2023/08/10 08:57:25;;;;;;;;;1.50;1.50;;;;;;;;4845097;29;45375;-62
2023/08/10 08:59:50;;;;;;;;;0.75;0.75;;;;;;;;4845613;29;45649;-63
2023/08/10 09:02:15;;;;;;;;;2.00;0.75;;;;;;;;4845289;29;45510;-63
2023/08/10 09:04:41;;;;;;;;;0.25;0.25;;;;;;;;4844799;29;45558;-62
2023/08/10 09:07:06;;;;;;;;;1.00;1.00;;;;;;;;4845267;29;45357;-63
2023/08/10 09:09:32;;;;;;;;;1.00;1.00;;;;;;;;4845705;29;45463;-63
2023/08/10 09:11:57;;;;;;;;;2.25;2.00;;;;;;;;4844417;29;45513;-62
2023/08/10 09:14:22;;;;;;;;;1.25;1.00;;;;;;;;4843304;29;45410;-63
2023/08/10 09:16:47;;;;;;;;;1.50;1.00;;;;;;;;4844965;29;45165;-63
2023/08/10 09:19:16;;;;;;;;;1.50;0.75;;;;;;;;4845691;29;45474;-63
2023/08/10 09:21:41;;;;;;;;;1.00;1.00;;;;;;;;4845284;29;45786;-63
2023/08/10 09:24:10;;;;;;;;;1.00;1.00;;;;;;;;4845258;29;45537;-63
2023/08/10 09:26:38;;;;;;;;;2.67;1.00;;;;;;;;4845262;29;45368;-63
2023/08/10 09:29:03;;;;;;;;;1.00;1.00;;;;;;;;4845241;29;45446;-63
2023/08/10 09:31:28;;;;;;;;;2.00;1.00;;;;;;;;4845064;29;46110;-63
2023/08/10 09:33:57;;;;;;;;;3.00;1.33;;;;;;;;4845041;29;45306;-63
2023/08/10 09:36:27;;;;;;;;;1.25;0.75;;;;;;;;4845339;29;45497;-63
2023/08/10 09:38:53;;;;;;;;;1.75;1.00;;;;;;;;4844854;29;45463;-63
2023/08/10 09:41:20;;;;;;;;;1.50;1.25;;;;;;;;4844840;29;46464;-63
2023/08/10 09:43:46;;;;;;;;;2.67;1.00;;;;;;;;4844995;29;45356;-63
2023/08/10 09:46:11;;;;;;;;;2.33;1.00;;;;;;;;4844458;29;45387;-63
2023/08/10 09:48:37;;;;;;;;;1.00;1.00;;;;;;;;4844682;29;45444;-63
2023/08/10 09:51:04;;;;;;;;;1.00;1.00;;;;;;;;4844846;29;45339;-63
2023/08/10 09:53:30;;;;;;;;;3.00;3.00;;;;;;;;4844822;29;45445;-63
2023/08/10 09:55:56;;;;;;;;;3.00;1.00;;;;;;;;4845024;29;45399;-63
2023/08/10 09:58:21;;;;;;;;;2.67;2.67;;;;;;;;4844151;29;45331;-63
2023/08/10 10:00:49;;;;;;;;;7.00;4.67;;;;;;;;4844507;29;45455;-63
2023/08/10 10:03:15;;;;;;;;;1.00;1.00;;;;;;;;4844467;29;45455;-63
2023/08/10 10:05:40;;;;;;;;;7.00;7.00;;;;;;;;4844767;29;45211;-63
2023/08/10 10:08:06;;;;;;;;;1.33;1.33;;;;;;;;4845058;29;45233;-63
2023/08/10 10:10:34;;;;;;;;;2.00;2.00;;;;;;;;4844096;29;46391;-63
2023/08/10 10:13:01;;;;;;;;;1.00;1.00;;;;;;;;4844429;29;45407;-63
2023/08/10 10:15:26;;;;;;;;;1.33;1.33;;;;;;;;4844751;29;45493;-63
2023/08/10 10:17:52;;;;;;;;;1.67;0.00;;;;;;;;4844268;29;45353;-64
2023/08/10 10:20:18;;;;;;;;;0.67;0.33;;;;;;;;4844270;29;46229;-64
2023/08/10 10:22:43;;;;;;;;;3.33;1.67;;;;;;;;4843217;29;45335;-64
2023/08/10 10:25:13;;;;;;;;;3.33;1.67;;;;;;;;4844459;29;45455;-64
2023/08/10 10:27:39;;;;;;;;;2.67;1.33;;;;;;;;4844787;29;45465;-64
2023/08/10 10:30:11;;;;;;;;;1.33;0.67;;;;;;;;4843656;29;45726;-64
2023/08/10 10:32:42;;;;;;;;;2.33;2.00;;;;;;;;4844122;29;45443;-64
2023/08/10 10:35:07;;;;;;;;;0.67;0.67;;;;;;;;4844540;29;45245;-64
2023/08/10 10:37:34;;;;;;;;;1.00;1.00;;;;;;;;4844448;29;45212;-64
2023/08/10 10:40:16;;;;;;;;;1.67;1.67;;;;;;;;4843858;29;46096;-64
2023/08/10 10:43:00;;;;;;;;;1.67;1.67;;;;;;;;4843708;29;45310;-64
2023/08/10 10:45:25;;;;;;;;;0.00;0.00;;;;;;;;4844286;29;45428;-64
2023/08/10 10:47:50;;;;;;;;;1.00;1.00;;;;;;;;4844223;29;45385;-64
2023/08/10 10:50:19;;;;;;;;;1.00;1.00;;;;;;;;4843672;29;45584;-64
2023/08/10 10:52:57;;;;;;;;;2.00;2.00;;;;;;;;4843695;29;45458;-64
2023/08/10 10:55:38;;;;;;;;;0.67;0.67;;;;;;;;4843564;29;45310;-64
2023/08/10 10:58:04;;;;;;;;;5.00;5.00;;;;;;;;4844172;29;45420;-64
2023/08/10 11:00:29;;;;;;;;;2.33;2.33;;;;;;;;4843709;29;46179;-63
2023/08/10 11:02:55;;;;;;;;;1.33;1.33;;;;;;;;4843358;29;45265;-63
2023/08/10 11:05:20;;;;;;;;;2.00;2.00;;;;;;;;4844035;29;45305;-63
2023/08/10 11:07:47;;;;;;;;;2.00;2.00;;;;;;;;4841887;29;45519;-65
2023/08/10 11:10:13;;;;;;;;;1.00;1.00;;;;;;;;4844980;29;46217;-63
2023/08/10 11:12:41;;;;;;;;;2.33;1.33;;;;;;;;4845995;29;45404;-66
2023/08/10 11:15:07;;;;;;;;;2.67;2.67;;;;;;;;4845736;29;45426;-65
2023/08/10 11:17:32;;;;;;;;;2.67;2.67;;;;;;;;4846863;29;45447;-65
2023/08/10 11:19:57;;;;;;;;;0.67;0.67;;;;;;;;4846893;29;45677;-65
2023/08/10 11:22:23;;;;;;;;;1.67;1.00;;;;;;;;4837117;29;45855;-66
2023/08/10 11:24:48;;;;;;;;;1.00;1.00;;;;;;;;4846505;29;45466;-65
2023/08/10 11:27:13;;;;;;;;;0.67;0.67;;;;;;;;4846675;29;45982;-66
2023/08/10 11:29:38;;;;;;;;;1.33;1.33;;;;;;;;4846585;29;46223;-65
2023/08/10 11:32:03;;;;;;;;;2.33;1.00;;;;;;;;4846566;29;45422;-65
2023/08/10 11:34:29;;;;;;;;;1.33;1.00;;;;;;;;4846444;29;45454;-64
2023/08/10 11:36:54;;;;;;;;;5.00;2.00;;;;;;;;4846376;29;45291;-65
2023/08/10 11:39:20;;;;;;;;;1.67;1.33;;;;;;;;4846145;29;45458;-63
2023/08/10 11:41:46;;;;;;;;;1.00;1.00;;;;;;;;4846240;29;45347;-62
2023/08/10 11:44:23;;;;;;;;;2.00;2.00;;;;;;;;4846133;29;45444;-63
2023/08/10 11:46:49;;;;;;;;;1.00;1.00;;;;;;;;4846432;29;45303;-62
2023/08/10 11:49:15;;;;;;;;;2.33;2.00;;;;;;;;4846141;29;46065;-62
2023/08/10 11:51:43;;;;;;;;;1.00;1.00;;;;;;;;4846014;29;45455;-65
2023/08/10 11:54:08;;;;;;;;;2.00;2.00;;;;;;;;4845837;29;45511;-67
2023/08/10 11:56:34;;;;;;;;;1.00;1.00;;;;;;;;4846329;29;45537;-67
2023/08/10 11:59:15;;;;;;;;;1.00;1.00;;;;;;;;4846048;29;46262;-67
2023/08/10 12:01:53;;;;;;;;;3.00;2.00;;;;;;;;4845894;29;45508;-65
2023/08/10 12:04:19;;;;;;;;;2.67;1.00;;;;;;;;4845965;29;45385;-62
2023/08/10 12:06:44;;;;;;;;;2.00;2.00;;;;;;;;4845779;29;45429;-62
2023/08/10 12:09:10;;;;;;;;;2.33;2.33;;;;;;;;4845738;29;45367;-62
2023/08/10 12:11:35;;;;;;;;;1.00;1.00;;;;;;;;4846075;29;45320;-64
2023/08/10 12:14:00;;;;;;;;;2.67;1.00;;;;;;;;4846359;29;45261;-64
2023/08/10 12:16:26;;;;;;;;;0.67;0.67;;;;;;;;4845737;29;45427;-64
2023/08/10 12:18:51;;;;;;;;;2.00;2.00;;;;;;;;4845821;29;46782;-63
2023/08/10 12:21:16;;;;;;;;;2.00;2.00;;;;;;;;4845100;29;45700;-64
2023/08/10 12:23:42;;;;;;;;;1.00;1.00;;;;;;;;4845856;29;45845;-63
2023/08/10 12:26:07;;;;;;;;;3.00;1.00;;;;;;;;4845651;29;45546;-64
2023/08/10 12:28:32;;;;;;;;;1.33;1.33;;;;;;;;4845649;29;46694;-64
2023/08/10 12:30:58;;;;;;;;;1.67;1.00;;;;;;;;4845749;29;45305;-63
2023/08/10 12:33:24;;;;;;;;;1.00;1.00;;;;;;;;4845921;29;45430;-63
2023/08/10 12:35:49;;;;;;;;;2.00;2.00;;;;;;;;4846140;29;45297;-63
2023/08/10 12:38:15;;;;;;;;;2.00;2.00;;;;;;;;4845254;29;45497;-62
2023/08/10 12:40:40;;;;;;;;;0.33;0.33;;;;;;;;4845418;29;45287;-63
2023/08/10 12:43:06;;;;;;;;;1.00;1.00;;;;;;;;4845808;29;45420;-63
2023/08/10 12:45:32;;;;;;;;;1.00;1.00;;;;;;;;4845886;29;45611;-63
2023/08/10 12:47:59;;;;;;;;;1.00;1.00;;;;;;;;4845204;29;45701;-63
2023/08/10 12:50:24;;;;;;;;;1.33;1.33;;;;;;;;4845271;29;45700;-63
2023/08/10 12:52:49;;;;;;;;;2.00;2.00;;;;;;;;4845450;29;45653;-62
2023/08/10 12:55:16;;;;;;;;;1.00;1.00;;;;;;;;4845821;29;45252;-62
2023/08/10 12:57:41;;;;;;;;;1.00;1.00;;;;;;;;4844845;29;45473;-63
2023/08/10 13:00:16;;;;;;;;;2.00;2.00;;;;;;;;4845860;29;45502;-63
2023/08/10 13:02:43;;;;;;;;;1.00;1.00;;;;;;;;4845781;29;46014;-63
2023/08/10 13:05:09;;;;;;;;;0.33;0.33;;;;;;;;4845717;29;45859;-63
2023/08/10 13:07:35;;;;;;;;;2.67;1.00;;;;;;;;4844944;29;47096;-63
2023/08/10 13:10:00;;;;;;;;;1.00;1.00;;;;;;;;4843484;29;45433;-63
2023/08/10 13:12:26;;;;;;;;;1.67;1.67;;;;;;;;4845368;29;45601;-62
2023/08/10 13:14:51;;;;;;;;;1.00;1.00;;;;;;;;4845473;29;45406;-63
2023/08/10 13:17:16;;;;;;;;;5.67;2.00;;;;;;;;4844945;29;46474;-63
2023/08/10 13:19:41;;;;;;;;;1.00;1.00;;;;;;;;4844678;29;45396;-64
2023/08/10 13:22:07;;;;;;;;;1.00;0.67;;;;;;;;4845399;29;45292;-63
2023/08/10 13:24:33;;;;;;;;;1.67;1.67;;;;;;;;4844901;29;45776;-60
2023/08/10 13:26:59;;;;;;;;;2.00;2.00;;;;;;;;4844935;29;47242;-59
2023/08/10 13:29:24;;;;;;;;;2.00;2.00;;;;;;;;4844262;29;45451;-63
2023/08/10 13:31:49;;;;;;;;;1.33;1.00;;;;;;;;4845410;29;45258;-63
2023/08/10 13:34:14;;;;;;;;;10.00;8.67;;;;;;;;4844053;29;45405;-62
2023/08/10 13:36:40;;;;;;;;;2.00;2.00;;;;;;;;4844797;29;46451;-60
2023/08/10 13:39:06;;;;;;;;;3.00;1.67;;;;;;;;4844431;29;45237;-60
2023/08/10 13:41:31;;;;;;;;;2.00;2.00;;;;;;;;4844715;29;45226;-60
2023/08/10 13:43:57;;;;;;;;;1.00;1.00;;;;;;;;4845449;29;45232;-60
2023/08/10 13:46:22;;;;;;;;;1.00;1.00;;;;;;;;4844586;29;45615;-60
2023/08/10 13:48:47;;;;;;;;;2.00;2.00;;;;;;;;4844492;29;45371;-61
2023/08/10 13:51:12;;;;;;;;;2.00;2.00;;;;;;;;4844506;29;45735;-60
2023/08/10 13:53:38;;;;;;;;;1.00;1.00;;;;;;;;4844973;29;45494;-60
2023/08/10 13:56:04;;;;;;;;;2.00;1.33;;;;;;;;4844444;29;46598;-63
2023/08/10 13:58:29;;;;;;;;;1.33;1.33;;;;;;;;4844523;29;45328;-62
2023/08/10 14:00:55;;;;;;;;;2.00;2.00;;;;;;;;4843936;29;45484;-62
2023/08/10 14:03:20;;;;;;;;;1.33;1.33;;;;;;;;4844793;29;45381;-62
2023/08/10 14:05:46;;;;;;;;;2.00;2.00;;;;;;;;4844768;29;45318;-62
2023/08/10 14:08:11;;;;;;;;;2.00;2.00;;;;;;;;4844764;29;45338;-62
2023/08/10 14:10:36;;;;;;;;;1.33;1.33;;;;;;;;4843539;29;45521;-62
2023/08/10 14:13:02;;;;;;;;;2.67;1.00;;;;;;;;4844605;29;45351;-62
2023/08/10 14:15:27;;;;;;;;;4.00;2.33;;;;;;;;4844567;29;45426;-63
2023/08/10 14:17:53;;;;;;;;;1.67;1.67;;;;;;;;4844170;29;45804;-63
2023/08/10 14:20:18;;;;;;;;;1.00;1.00;;;;;;;;4844832;29;45264;-63
2023/08/10 14:22:43;;;;;;;;;1.00;1.00;;;;;;;;4844322;29;45866;-63
2023/08/10 14:25:09;;;;;;;;;2.00;2.00;;;;;;;;4844097;29;46477;-63
2023/08/10 14:27:36;;;;;;;;;2.33;1.00;;;;;;;;4844371;29;45439;-63
2023/08/10 14:30:01;;;;;;;;;3.00;3.00;;;;;;;;4844611;29;45180;-63
2023/08/10 14:32:26;;;;;;;;;1.67;1.67;;;;;;;;4844113;29;45266;-62
2023/08/10 14:34:52;;;;;;;;;3.33;2.00;;;;;;;;4844277;29;46679;-63
2023/08/10 14:37:17;;;;;;;;;1.33;1.33;;;;;;;;4844431;29;45707;-63